Latest Weather Observations for Perth Airport

IDW60801

Issued at 8:33 pm WST Tuesday 17 January 2017 (issued every 30 minutes, with the page automatically refreshed every 10 minutes)

About weather observations | Map of weather stations | Latest weather observations for WA | Other Formats
Station Details ID: 009021 Name: PERTH AIRPORT Lat: -31.93 Lon: 115.98 Height: 15.4 m
Data from the previous 72 hours. | See also: Recent months at Perth Airport
Date/Time
WST
Temp
°C
App
Temp
°C
Dew
Point
°C
Rel
Hum
%
Delta-T
°C
Wind Press
QNH
hPa
Press
MSL
hPa
Rain since
9am
mm
Dir  Spd
km/h
Gust
km/h
Spd
kts
Gust
kts
17/08:00pm 24.2 22.1 12.3 47 6.8 SW 15 19 8 10 1011.4 1011.3 0.0
17/07:30pm 25.0 22.0 12.5 45 7.2 SW 20 28 11 15 1011.0 1010.9 0.0
17/07:00pm 26.1 23.6 12.2 42 8.0 WSW 17 24 9 13 1010.8 1010.7 0.0
17/06:30pm 27.8 24.7 12.1 37 9.1 WSW 20 30 11 16 1010.5 1010.4 0.0
17/06:00pm 29.4 25.8 9.9 29 11.0 SW 19 30 10 16 1010.3 1010.2 0.0
17/05:30pm 30.6 26.4 5.6 20 13.2 SE 17 32 9 17 1010.0 1009.9 0.0
17/05:00pm 30.3 27.0 6.6 22 12.7 SSE 13 32 7 17 1010.0 1009.9 0.0
17/04:30pm 31.3 27.7 6.7 21 13.3 E 15 26 8 14 1010.2 1010.1 0.0
17/04:00pm 30.5 27.3 7.0 23 12.7 ENE 13 20 7 11 1010.6 1010.5 0.0
17/03:30pm 30.7 26.9 7.7 23 12.6 SSE 17 28 9 15 1010.8 1010.7 0.0
17/03:00pm 29.7 25.9 7.6 25 12.0 SSE 17 30 9 16 1011.0 1010.9 0.0
17/02:30pm 29.2 24.8 7.6 25 11.7 ESE 20 30 11 16 1011.5 1011.4 0.0
17/02:00pm 29.0 24.9 7.8 26 11.5 ESE 19 33 10 18 1011.8 1011.7 0.0
17/01:30pm 28.4 24.6 7.7 27 11.2 E 17 30 9 16 1012.2 1012.1 0.0
17/01:00pm 28.0 23.4 8.1 28 10.8 E 22 32 12 17 1012.5 1012.4 0.0
17/12:30pm 27.2 23.2 9.0 31 10.0 E 20 32 11 17 1012.7 1012.6 0.0
17/12:00pm 27.1 22.7 8.8 31 10.0 E 22 33 12 18 1013.0 1012.9 0.0
17/11:30am 25.8 20.6 8.9 34 9.2 E 26 35 14 19 1013.3 1013.2 0.0
17/11:00am 25.6 22.2 9.1 35 9.0 ESE 17 33 9 18 1013.7 1013.6 0.0
17/10:30am 24.1 19.2 8.6 37 8.3 E 24 33 13 18 1014.1 1014.0 0.0
17/10:00am 23.4 18.5 8.6 38 7.9 E 24 33 13 18 1014.3 1014.2 0.0
17/09:30am 23.0 17.8 8.8 40 7.6 E 26 37 14 20 1014.5 1014.4 0.0
17/09:00am 21.8 15.8 8.5 42 7.0 E 30 44 16 24 1014.7 1014.6 0.0
17/08:30am 21.0 16.5 8.4 44 6.6 ESE 22 33 12 18 1014.8 1014.7 0.0
17/08:00am 20.1 16.1 8.9 48 5.9 ESE 20 32 11 17 1015.0 1014.9 0.0
17/07:30am 19.0 15.1 8.8 51 5.3 ESE 19 28 10 15 1015.2 1015.1 0.0
17/07:00am 18.4 14.6 9.0 54 4.9 SE 19 28 10 15 1015.2 1015.1 0.0
17/06:30am 17.3 13.5 9.0 58 4.3 SSE 19 28 10 15 1015.1 1015.0 0.0
17/06:00am 16.4 12.6 9.0 61 3.8 SE 19 28 10 15 1015.0 1014.9 0.0
17/05:30am 16.0 12.6 9.0 63 3.6 SE 17 22 9 12 1014.6 1014.5 0.0
17/05:00am 16.2 12.3 8.8 61 3.8 SSE 19 32 10 17 1014.3 1014.2 0.0
17/04:30am 16.5 12.0 8.5 59 4.1 SE 22 33 12 18 1013.8 1013.7 0.0
17/04:00am 16.7 12.6 8.5 58 4.2 SE 20 26 11 14 1013.3 1013.2 0.0
17/03:30am 17.0 12.1 8.6 57 4.3 SE 24 32 13 17 1013.0 1012.9 0.0
17/03:00am 17.4 12.6 8.7 56 4.5 SE 24 33 13 18 1012.7 1012.6 0.0
17/02:30am 17.8 12.2 8.9 56 4.6 SE 28 33 15 18 1012.5 1012.4 0.0
17/02:00am 18.4 13.9 8.5 52 5.1 ESE 22 32 12 17 1012.2 1012.1 0.0
17/01:30am 18.8 12.8 8.6 51 5.3 ESE 30 35 16 19 1011.9 1011.8 0.0
17/01:00am 19.4 15.2 8.4 49 5.7 SE 20 28 11 15 1011.5 1011.4 0.0
17/12:30am 18.7 15.1 8.5 51 5.3 SSE 17 32 9 17 1011.3 1011.2 0.0
17/12:00am 18.3 14.7 8.4 52 5.1 S 17 22 9 12 1011.2 1011.1 0.0
 
Date/Time
WST
Temp
°C
App
Temp
°C
Dew
Point
°C
Rel
Hum
%
Delta-T
°C
Wind Press
QNH
hPa
Press
MSL
hPa
Rain since
9am
mm
Dir  Spd
km/h
Gust
km/h
Spd
kts
Gust
kts
16/11:30pm 19.4 14.4 7.9 47 5.9 S 24 28 13 15 1011.1 1011.0 0.0
16/11:00pm 19.4 14.8 8.2 48 5.8 S 22 30 12 16 1011.0 1010.9 0.0
16/10:30pm 20.1 14.7 8.2 46 6.2 S 26 32 14 17 1011.0 1010.9 0.0
16/10:00pm 20.6 15.4 8.9 47 6.2 SSW 26 30 14 16 1010.9 1010.8 0.0
16/09:30pm 20.9 17.0 9.5 48 6.1 SSW 20 30 11 16 1010.8 1010.7 0.0
16/09:00pm 20.9 17.2 10.0 49 5.9 SSW 20 28 11 15 1010.3 1010.2 0.0
16/08:30pm 21.2 17.0 9.9 48 6.1 SW 22 30 12 16 1010.2 1010.1 0.0
16/08:00pm 21.6 17.1 10.0 47 6.3 SW 24 30 13 16 1009.9 1009.8 0.0
16/07:30pm 21.5 15.6 11.2 52 5.7 SW 33 44 18 24 1009.6 1009.5 0.0
16/07:00pm 22.4 16.2 11.3 49 6.2 SW 35 48 19 26 1009.4 1009.3 0.0
16/06:30pm 23.2 17.1 10.5 44 7.0 SW 33 43 18 23 1009.1 1009.0 0.0
16/06:00pm 24.1 16.8 10.1 41 7.7 SW 39 50 21 27 1008.9 1008.8 0.0
16/05:30pm 24.6 18.5 10.4 40 7.9 SW 33 43 18 23 1008.7 1008.6 0.0
16/05:00pm 24.8 18.0 10.7 41 7.9 SW 37 48 20 26 1008.7 1008.6 0.0
16/04:30pm 25.3 18.8 11.6 42 7.8 SW 37 46 20 25 1008.6 1008.5 0.0
16/04:17pm 25.2 18.2 11.4 42 7.8 SSW 39 48 21 26 1008.6 1008.5 0.0
16/04:00pm 25.6 19.4 11.5 41 8.0 SW 35 44 19 24 1008.6 1008.5 0.0
16/03:30pm 26.1 20.2 12.5 42 7.9 SW 35 46 19 25 1008.9 1008.8 0.0
16/03:00pm 25.7 20.0 13.0 45 7.4 SW 35 44 19 24 1008.9 1008.8 0.0
16/02:30pm 26.3 21.0 13.0 43 7.8 WSW 33 44 18 24 1009.0 1008.9 0.0
16/02:00pm 26.5 20.7 12.8 42 8.0 SW 35 44 19 24 1009.0 1008.9 0.0
16/01:30pm 26.5 19.9 11.4 39 8.6 SW 37 54 20 29 1009.1 1009.0 0.0
16/01:25pm 25.9 19.7 11.5 40 8.2 SW 35 54 19 29 1009.0 1008.9 0.0
16/01:00pm 26.0 19.9 10.5 37 8.7 WSW 33 46 18 25 1009.2 1009.1 0.0
16/12:30pm 26.7 20.9 10.8 37 9.0 WSW 32 41 17 22 1009.3 1009.2 0.0
16/12:00pm 26.8 22.0 11.6 38 8.7 SW 28 37 15 20 1009.3 1009.2 0.0
16/11:30am 26.5 22.8 10.0 35 9.2 SW 20 35 11 19 1009.4 1009.3 0.0
16/11:00am 26.2 21.8 10.3 36 8.9 SSW 24 35 13 19 1009.8 1009.7 0.0
16/10:30am 25.4 21.8 10.5 39 8.3 SSW 20 33 11 18 1010.1 1010.0 0.0
16/10:00am 24.3 20.7 10.6 42 7.6 SSW 20 32 11 17 1010.1 1010.0 0.0
16/09:30am 22.9 19.6 11.5 48 6.4 SSW 20 30 11 16 1010.2 1010.1 0.0
16/09:00am 21.5 19.1 11.4 52 5.6 SSW 15 24 8 13 1010.4 1010.3 0.0
16/08:30am 21.1 17.9 11.1 52 5.5 SSW 19 26 10 14 1010.5 1010.4 0.0
16/08:00am 19.7 16.5 11.1 57 4.7 SSW 19 24 10 13 1010.6 1010.5 0.0
16/07:30am 19.1 15.3 11.0 59 4.4 S 22 28 12 15 1010.4 1010.3 0.0
16/07:00am 17.9 14.6 10.9 63 3.8 S 19 26 10 14 1010.4 1010.3 0.0
16/06:30am 16.9 13.0 10.7 67 3.3 S 22 28 12 15 1010.1 1010.0 0.0
16/06:00am 16.6 12.2 10.4 67 3.3 S 24 28 13 15 1009.7 1009.6 0.0
16/05:30am 16.4 12.7 10.2 66 3.3 S 20 26 11 14 1009.3 1009.2 0.0
16/05:00am 16.3 13.5 10.0 66 3.3 S 15 17 8 9 1009.0 1008.9 0.0
16/04:30am 16.7 12.9 9.9 64 3.6 S 20 26 11 14 1008.7 1008.6 0.0
16/04:00am 16.6 13.4 10.0 65 3.5 S 17 20 9 11 1008.5 1008.4 0.0
16/03:30am 17.1 12.9 9.7 61 3.9 S 22 28 12 15 1008.3 1008.2 0.0
16/03:00am 17.6 13.1 10.1 61 4.0 S 24 30 13 16 1008.0 1007.9 0.0
16/02:30am 18.0 14.3 10.1 60 4.2 S 20 26 11 14 1007.9 1007.8 0.0
16/02:00am 18.3 14.6 10.1 59 4.4 S 20 28 11 15 1008.0 1007.9 0.0
16/01:30am 18.8 13.9 10.0 56 4.7 S 26 32 14 17 1007.9 1007.8 0.0
16/01:00am 19.4 14.2 10.1 55 5.0 SSW 28 32 15 17 1007.8 1007.7 0.0
16/12:30am 19.8 16.3 10.2 54 5.2 SSW 19 22 10 12 1007.5 1007.4 0.0
16/12:00am 20.3 16.8 10.8 54 5.2 SSW 20 28 11 15 1007.6 1007.5 0.0
 
Date/Time
WST
Temp
°C
App
Temp
°C
Dew
Point
°C
Rel
Hum
%
Delta-T
°C
Wind Press
QNH
hPa
Press
MSL
hPa
Rain since
9am
mm
Dir  Spd
km/h
Gust
km/h
Spd
kts
Gust
kts
15/11:30pm 20.7 16.9 11.3 55 5.2 SSW 22 32 12 17 1007.6 1007.5 0.0
15/11:00pm 21.2 17.7 12.1 56 5.1 SSW 22 32 12 17 1007.5 1007.4 0.0
15/10:30pm 21.4 19.0 13.8 62 4.4 SSW 19 26 10 14 1007.5 1007.4 0.0
15/10:00pm 21.5 19.8 14.7 65 4.0 SSW 17 24 9 13 1007.6 1007.5 0.0
15/09:30pm 21.6 19.4 15.0 66 3.9 SSW 20 28 11 15 1007.6 1007.5 0.0
15/09:00pm 21.8 18.9 15.1 65 4.0 SSW 24 33 13 18 1007.5 1007.4 0.0
15/08:30pm 22.0 18.6 14.7 63 4.3 SSW 26 35 14 19 1007.4 1007.3 0.0
15/08:00pm 22.8 18.3 12.5 52 5.9 SW 28 33 15 18 1007.2 1007.1 0.0
15/07:30pm 23.2 19.2 14.0 56 5.4 SW 28 33 15 18 1007.1 1007.0 0.0
15/07:00pm 24.7 20.4 13.2 48 6.7 SW 28 35 15 19 1006.7 1006.6 0.0
15/06:30pm 26.5 21.3 12.8 42 8.0 SW 32 39 17 21 1006.4 1006.3 0.0
15/06:00pm 28.0 23.6 12.9 39 8.9 SW 28 35 15 19 1006.0 1005.9 0.0
15/05:30pm 29.1 24.8 13.1 37 9.5 SW 28 35 15 19 1005.7 1005.6 0.0
15/05:00pm 30.2 25.6 12.2 33 10.6 WSW 28 33 15 18 1005.5 1005.4 0.0
15/04:30pm 31.4 27.6 13.7 34 10.7 SW 26 35 14 19 1005.4 1005.3 0.0
15/04:00pm 32.9 29.9 13.7 31 11.7 WSW 22 32 12 17 1005.3 1005.2 0.0
15/03:30pm 32.8 29.3 12.3 28 12.2 WSW 22 30 12 16 1005.5 1005.4 0.0
15/03:00pm 32.8 29.3 13.5 31 11.7 SW 24 32 13 17 1005.8 1005.7 0.0
15/02:30pm 34.0 30.7 11.5 25 13.3 WSW 20 28 11 15 1006.0 1005.9 0.0
15/02:00pm 32.8 31.1 16.3 37 10.4 W 20 28 11 15 1006.1 1006.0 0.0
15/01:30pm 33.4 30.9 14.2 31 11.8 WSW 20 28 11 15 1006.4 1006.3 0.0
15/01:00pm 34.5 30.3 7.3 18 15.1 WSW 19 26 10 14 1006.6 1006.5 0.0
15/12:30pm 34.3 31.6 11.7 25 13.4 WSW 17 24 9 13 1006.7 1006.6 0.0
15/12:00pm 34.7 30.0 3.2 14 16.4 WSW 17 26 9 14 1006.9 1006.8 0.0
15/11:30am 34.6 31.0 4.8 15 15.9 WSW 13 24 7 13 1007.3 1007.2 0.0
15/11:00am 33.7 30.5 5.0 16 15.3 WSW 11 17 6 9 1007.7 1007.6 0.0
15/10:30am 32.7 29.3 1.9 14 15.5 W 9 17 5 9 1007.9 1007.8 0.0
15/10:00am 32.1 28.5 3.2 16 14.8 W 11 15 6 8 1008.0 1007.9 0.0
15/09:30am 30.9 28.2 5.6 20 13.4 WSW 9 15 5 8 1008.2 1008.1 0.0
15/09:00am 28.6 26.3 9.1 29 10.8 SW 11 15 6 8 1008.5 1008.4 0.0
15/08:30am 26.9 24.4 9.6 33 9.6 SSW 13 15 7 8 1008.7 1008.6 0.0
15/08:00am 24.9 22.9 10.1 39 8.2 S 11 15 6 8 1008.8 1008.7 0.0
15/07:30am 23.1 20.7 9.9 43 7.2 S 13 17 7 9 1009.1 1009.0 0.0
15/07:00am 21.6 19.6 10.0 47 6.3 S 11 15 6 8 1009.1 1009.0 0.0
15/06:30am 17.9 18.0 10.2 60 4.1 CALM 0 0 0 0 1009.2 1009.1 0.0
15/06:00am 14.1 13.9 9.2 72 2.5 CALM 0 0 0 0 1009.2 1009.1 0.0
15/05:30am 13.9 12.6 9.2 73 2.4 E 6 9 3 5 1008.9 1008.8 0.0
15/05:00am 14.1 14.0 9.4 73 2.4 CALM 0 0 0 0 1008.7 1008.6 0.0
15/04:30am 14.9 13.5 9.5 70 2.8 E 7 9 4 5 1008.5 1008.4 0.0
15/04:00am 14.1 13.2 9.2 72 2.5 S 4 7 2 4 1008.6 1008.5 0.0
15/03:30am 14.8 13.2 8.9 68 3.0 S 7 9 4 5 1008.7 1008.6 0.0
15/03:00am 15.3 15.4 10.2 71 2.7 CALM 0 0 0 0 1008.5 1008.4 0.0
15/02:30am 16.0 16.1 10.1 68 3.1 CALM 0 0 0 0 1008.6 1008.5 0.0
15/02:00am 15.9 14.4 9.3 65 3.4 S 7 11 4 6 1008.8 1008.7 0.0
15/01:30am 17.1 17.1 9.7 61 3.9 CALM 0 6 0 3 1009.1 1009.0 0.0
15/01:00am 19.1 17.2 10.4 57 4.7 S 11 13 6 7 1009.4 1009.3 0.0
15/12:30am 21.0 18.7 10.3 50 5.8 S 13 17 7 9 1009.8 1009.7 0.0
15/12:00am 21.8 19.7 9.8 46 6.5 SSW 11 15 6 8 1010.1 1010.0 0.0
 
Date/Time
WST
Temp
°C
App
Temp
°C
Dew
Point
°C
Rel
Hum
%
Delta-T
°C
Wind Press
QNH
hPa
Press
MSL
hPa
Rain since
9am
mm
Dir  Spd
km/h
Gust
km/h
Spd
kts
Gust
kts
14/11:30pm 22.6 19.9 10.4 46 6.7 SSW 15 19 8 10 1010.4 1010.3 0.0
14/11:00pm 24.0 20.9 8.7 37 8.2 S 15 20 8 11 1010.3 1010.2 0.0
14/10:30pm 24.1 21.3 8.6 37 8.3 S 13 17 7 9 1010.4 1010.3 0.0
14/10:00pm 25.5 21.9 8.4 33 9.2 SSW 17 19 9 10 1010.3 1010.2 0.0
14/09:30pm 26.8 23.4 7.5 29 10.3 SSW 15 20 8 11 1010.2 1010.1 0.0
14/09:00pm 27.5 22.3 7.3 28 10.8 SSW 24 32 13 17 1010.0 1009.9 0.0

Other Formats:

Comma delimited format used in spreadsheet applications
http://www.bom.gov.au/fwo/IDW60801/IDW60801.94610.axf

JavaScript Object Notation format (JSON) in row-major order
http://www.bom.gov.au/fwo/IDW60801/IDW60801.94610.json